Overview Statistics Trail Chart Weather Telemetry Raw packets
 

This is the latest recevied weather packets stored in our database for station/object 9W2CHF-3. If no packets are shown the sender has not sent any weather packets the latest 10 day(s).

<< 25 26 27 28 29 >>
Time Temp. Humidity Pressure Rain* Wind** Luminosity Snow
1776968794 31.11° C 90% 1008.3 hPa - - - -
1776967594 31.11° C 91% 1008.5 hPa - - - -
1776966394 31.67° C 91% 1008.8 hPa - - - -
1776965194 30.56° C 96% 1009 hPa - - - -
1776963994 31.67° C 94% 1009.3 hPa - - - -
1776962794 31.11° C 95% 1009.3 hPa - - - -
1776961594 31.11° C 94% 1009.4 hPa - - - -
1776960394 31.67° C 90% 1009.6 hPa - - - -
1776959195 31.67° C 88% 1009.7 hPa - - - -
1776957993 32.78° C 83% 1010 hPa - - - -
1776956793 33.89° C 77% 1010.1 hPa - - - -
1776955593 33.89° C 77% 1009.9 hPa - - - -
1776954393 35° C 72% 1009.8 hPa - - - -
1776953193 33.89° C 80% 1009.6 hPa - - - -
1776951993 32.22° C 83% 1009.6 hPa - - - -
1776950793 32.78° C 84% 1009.5 hPa - - - -
1776949593 32.22° C 82% 1009.2 hPa - - - -
1776948392 32.78° C 81% 1009 hPa - - - -
1776947191 33.89° C 74% 1008.7 hPa - - - -
1776945991 33.33° C 78% 1008.3 hPa - - - -
1776944800 33.33° C 77% 1008 hPa - - - -
1776943591 35° C 76% 1007.8 hPa - - - -
1776942391 32.78° C 80% 1007.6 hPa - - - -
1776941191 33.89° C 75% 1007.3 hPa - - - -
1776939990 33.33° C 77% 1007.2 hPa - - - -

* Rain since midnight (hover to see other rain measurements)
** Current wind speed in m/s (hover to see current wind gust speed)